Time;durP1;ratioP1;P1;durP2;ratioP2;P2;SDS_P1;SDS_P2;PMS_P1;PMS_P2;Temp;Humidity;BMP_temperature;BMP_pressure;BME280_temperature;BME280_humidity;BME280_pressure;Samples;Min_cycle;Max_cycle;Signal;HPM_P1;HPM_P2
2023/10/07 00:02:18;;;;;;;74.87;10.37;;;14.50;59.50;;;;;;4985269;28;20877;-83
2023/10/07 00:04:44;;;;;;;72.10;10.60;;;14.40;59.40;;;;;;4985620;28;20399;-83
2023/10/07 00:07:14;;;;;;;71.77;9.83;;;14.50;62.00;;;;;;4967886;28;20407;-83
2023/10/07 00:09:44;;;;;;;75.60;9.33;;;14.50;61.10;;;;;;4986020;28;20396;-83
2023/10/07 00:12:19;;;;;;;72.93;9.70;;;14.50;66.10;;;;;;4968386;28;20434;-83
2023/10/07 00:14:45;;;;;;;72.23;7.73;;;14.50;65.30;;;;;;4964270;28;20410;-83
2023/10/07 00:17:17;;;;;;;74.50;9.00;;;14.50;67.40;;;;;;4981214;28;20407;-83
2023/10/07 00:19:47;;;;;;;76.77;11.50;;;14.50;73.30;;;;;;4963354;28;20443;-83
2023/10/07 00:22:19;;;;;;;72.30;9.53;;;14.50;72.90;;;;;;4962818;28;20814;-83
2023/10/07 00:24:48;;;;;;;73.73;9.40;;;14.50;78.10;;;;;;4981420;28;20407;-82
2023/10/07 00:29:55;;;;;;;70.50;9.00;;;14.50;77.70;;;;;;4980681;28;20468;-83
2023/10/07 00:32:28;;;;;;;71.73;8.60;;;14.50;80.50;;;;;;4980701;28;20437;-83
2023/10/07 00:34:55;;;;;;;72.43;9.77;;;14.50;79.40;;;;;;4980593;28;20440;-83
2023/10/07 00:37:23;;;;;;;73.00;8.37;;;14.50;80.90;;;;;;4980166;28;20470;-82
2023/10/07 00:39:51;;;;;;;72.77;8.97;;;14.60;76.90;;;;;;4980455;28;20411;-82
2023/10/07 00:42:18;;;;;;;73.53;9.70;;;14.50;79.30;;;;;;4980648;28;20459;-83
2023/10/07 00:44:47;;;;;;;79.90;9.47;;;14.50;79.40;;;;;;4980723;28;20904;-82
2023/10/07 00:47:13;;;;;;;75.63;8.70;;;14.50;82.10;;;;;;4980843;28;20427;-83
2023/10/07 00:49:57;;;;;;;76.23;9.63;;;14.50;81.90;;;;;;4981136;28;20965;-83
2023/10/07 00:55:08;;;;;;;72.30;10.83;;;14.50;85.80;;;;;;4980754;28;20458;-83
2023/10/07 00:57:36;;;;;;;73.40;10.80;;;14.40;93.40;;;;;;4982694;28;20395;-83
2023/10/07 01:02:40;;;;;;;73.80;10.87;;;14.40;93.40;;;;;;4984478;28;20427;-83
2023/10/07 01:05:09;;;;;;;71.70;11.23;;;14.40;93.90;;;;;;4984272;28;20396;-84
2023/10/07 01:07:35;;;;;;;73.20;13.50;;;14.40;94.50;;;;;;4984123;28;20403;-84
2023/10/07 01:12:38;;;;;;;75.13;11.83;;;14.50;96.00;;;;;;4984517;28;20187;-85
2023/10/07 01:15:29;;;;;;;74.80;12.50;;;14.50;95.40;;;;;;4980420;28;20399;-85
2023/10/07 01:18:05;;;;;;;73.80;12.87;;;14.50;96.90;;;;;;4979477;28;20417;-85
2023/10/07 01:20:58;;;;;;;73.77;14.00;;;14.40;98.40;;;;;;4983069;28;20435;-84
2023/10/07 01:23:24;;;;;;;76.63;14.07;;;14.40;99.10;;;;;;4983338;28;20459;-84
2023/10/07 01:25:50;;;;;;;74.17;14.07;;;14.50;99.10;;;;;;4983802;28;20410;-83
2023/10/07 01:28:20;;;;;;;75.23;14.37;;;14.50;99.30;;;;;;4983524;28;20399;-83
2023/10/07 01:31:07;;;;;;;76.90;13.73;;;14.50;97.90;;;;;;4965580;28;20415;-83
2023/10/07 01:33:40;;;;;;;74.70;13.23;;;14.50;98.10;;;;;;4983332;28;20459;-83
2023/10/07 01:38:44;;;;;;;77.03;13.70;;;14.40;99.90;;;;;;4983611;28;20383;-83
2023/10/07 01:41:18;;;;;;;79.47;13.00;;;14.40;99.90;;;;;;4965651;28;20458;-83
2023/10/07 01:43:56;;;;;;;73.10;12.47;;;14.40;99.90;;;;;;4981458;28;20434;-83
2023/10/07 01:46:32;;;;;;;73.40;10.80;;;14.30;99.90;;;;;;4964560;28;20396;-83
2023/10/07 01:49:12;;;;;;;78.60;12.67;;;14.30;99.90;;;;;;4979994;28;20388;-83
2023/10/07 01:51:44;;;;;;;73.40;13.73;;;14.40;99.90;;;;;;4979468;28;20407;-83
2023/10/07 01:54:11;;;;;;;76.87;12.10;;;14.40;99.90;;;;;;4980030;28;20446;-83
2023/10/07 01:56:38;;;;;;;75.40;13.00;;;14.30;99.90;;;;;;4961705;28;20447;-82
2023/10/07 02:01:42;;;;;;;76.17;12.67;;;14.30;99.90;;;;;;4979284;28;20502;-83
2023/10/07 02:04:17;;;;;;;76.10;13.03;;;14.30;99.90;;;;;;4979197;28;20400;-83
2023/10/07 02:06:52;;;;;;;74.00;13.17;;;14.30;99.90;;;;;;4980270;28;20411;-83
2023/10/07 02:09:25;;;;;;;73.30;12.60;;;14.30;99.90;;;;;;4978980;28;20752;-83
2023/10/07 02:11:55;;;;;;;75.17;12.50;;;14.30;99.90;;;;;;4979555;28;20442;-83
2023/10/07 02:14:24;;;;;;;73.30;14.60;;;14.20;99.90;;;;;;4979416;28;20470;-83
2023/10/07 02:16:52;;;;;;;74.00;11.80;;;14.30;99.90;;;;;;4979169;28;20407;-83
2023/10/07 02:19:27;;;;;;;74.67;12.93;;;14.30;99.90;;;;;;4978845;28;20413;-83
2023/10/07 02:21:59;;;;;;;76.83;12.47;;;14.20;99.90;;;;;;4978065;28;21079;-83
2023/10/07 02:24:29;;;;;;;73.20;12.17;;;14.30;99.90;;;;;;4961750;28;20459;-83
2023/10/07 02:27:04;;;;;;;76.67;12.10;;;14.30;99.90;;;;;;4979028;28;20403;-83
2023/10/07 02:29:30;;;;;;;73.20;12.20;;;14.30;99.90;;;;;;4983836;28;20387;-83
2023/10/07 02:32:07;;;;;;;73.70;11.20;;;14.30;99.90;;;;;;4983492;28;20853;-84
2023/10/07 02:34:33;;;;;;;78.17;12.27;;;14.30;99.90;;;;;;4982648;28;20399;-84
2023/10/07 02:37:12;;;;;;;77.00;12.80;;;14.30;99.90;;;;;;4982290;28;20415;-83
2023/10/07 02:39:47;;;;;;;75.80;18.20;;;14.20;99.90;;;;;;4982857;28;20947;-83
2023/10/07 02:42:24;;;;;;;74.97;17.00;;;14.20;99.90;;;;;;4982281;28;20983;-83
2023/10/07 02:45:01;;;;;;;83.13;15.93;;;14.20;99.90;;;;;;4965275;28;20419;-83
2023/10/07 02:47:32;;;;;;;78.17;20.90;;;14.30;99.90;;;;;;4965689;28;20490;-83
2023/10/07 02:50:02;;;;;;;77.03;19.30;;;14.30;99.90;;;;;;4982720;28;20391;-84
2023/10/07 02:52:35;;;;;;;78.47;22.20;;;14.20;99.90;;;;;;4982327;28;20431;-83
2023/10/07 02:57:47;;;;;;;82.47;24.03;;;14.20;99.90;;;;;;4982035;28;20382;-84
2023/10/07 03:05:44;;;;;;;78.40;25.20;;;14.30;99.90;;;;;;4981623;28;20383;-83
2023/10/07 03:08:19;;;;;;;78.17;22.47;;;14.30;99.90;;;;;;4981797;28;20444;-83
2023/10/07 03:10:54;;;;;;;85.53;21.90;;;14.20;99.90;;;;;;4964586;28;20403;-83
2023/10/07 03:13:22;;;;;;;81.40;23.47;;;14.20;99.90;;;;;;4981038;28;20469;-83
2023/10/07 03:16:09;;;;;;;79.17;25.27;;;14.20;99.90;;;;;;4961780;28;20415;-83
2023/10/07 03:18:56;;;;;;;80.40;24.27;;;14.20;99.90;;;;;;4978955;28;20418;-83
2023/10/07 03:21:35;;;;;;;77.77;23.67;;;14.20;99.90;;;;;;4961749;28;20447;-83
2023/10/07 03:24:00;;;;;;;78.83;25.43;;;14.20;99.90;;;;;;4961423;28;20947;-83
2023/10/07 03:26:32;;;;;;;78.10;24.23;;;14.30;99.90;;;;;;4978518;28;20403;-83
2023/10/07 03:28:58;;;;;;;78.50;27.27;;;14.20;99.90;;;;;;4979239;28;20428;-83
2023/10/07 03:34:09;;;;;;;78.20;23.83;;;14.30;99.90;;;;;;4978853;28;20387;-83
2023/10/07 03:36:44;;;;;;;83.17;28.10;;;14.30;99.90;;;;;;4961998;28;20387;-83
2023/10/07 03:41:48;;;;;;;81.03;30.77;;;14.30;99.90;;;;;;4978455;28;20462;-83
2023/10/07 03:44:18;;;;;;;81.90;31.00;;;14.30;99.90;;;;;;4977567;28;20777;-83
2023/10/07 03:46:54;;;;;;;81.00;32.50;;;14.30;99.90;;;;;;4978170;28;20396;-83
2023/10/07 03:49:27;;;;;;;80.97;31.83;;;14.30;99.90;;;;;;4978706;28;20730;-83
2023/10/07 03:52:12;;;;;;;83.37;35.37;;;14.30;99.90;;;;;;4978351;28;20954;-83
2023/10/07 03:54:41;;;;;;;82.70;36.27;;;14.40;99.90;;;;;;4978492;28;20387;-83
2023/10/07 03:57:09;;;;;;;80.47;29.23;;;14.40;99.90;;;;;;4960997;28;20773;-83
2023/10/07 03:59:38;;;;;;;84.13;29.03;;;14.30;99.90;;;;;;4979024;28;20896;-83
2023/10/07 04:04:58;;;;;;;85.20;33.67;;;14.40;99.90;;;;;;4981166;28;20434;-83
2023/10/07 04:07:24;;;;;;;81.80;31.63;;;14.40;99.90;;;;;;4963424;28;20403;-83
2023/10/07 04:09:51;;;;;;;84.37;33.67;;;14.30;99.90;;;;;;4981542;28;20407;-83
2023/10/07 04:12:17;;;;;;;78.27;29.90;;;14.40;99.90;;;;;;4980597;28;20427;-83
2023/10/07 04:14:42;;;;;;;81.80;33.60;;;14.40;99.90;;;;;;4980265;28;20474;-84
2023/10/07 04:17:12;;;;;;;79.60;31.93;;;14.40;99.90;;;;;;4980443;28;20430;-83
2023/10/07 04:19:40;;;;;;;81.50;33.10;;;14.40;99.90;;;;;;4981234;28;20164;-83
2023/10/07 04:22:09;;;;;;;88.93;37.00;;;14.40;99.90;;;;;;4980212;28;20509;-83
2023/10/07 04:24:38;;;;;;;83.07;35.60;;;14.40;99.90;;;;;;4980237;28;20434;-83
2023/10/07 04:27:05;;;;;;;83.63;37.40;;;14.40;99.90;;;;;;4963223;28;20422;-83
2023/10/07 04:29:32;;;;;;;87.20;33.40;;;14.40;99.90;;;;;;4980238;28;20407;-83
2023/10/07 04:32:05;;;;;;;84.43;35.47;;;14.50;99.90;;;;;;4980651;28;20825;-83
2023/10/07 04:34:33;;;;;;;86.60;33.83;;;14.40;99.90;;;;;;4980455;28;20384;-83
2023/10/07 04:39:37;;;;;;;86.67;39.63;;;14.50;99.90;;;;;;4981198;28;20410;-83
2023/10/07 04:42:07;;;;;;;82.93;35.40;;;14.50;99.90;;;;;;4980629;28;20463;-83
2023/10/07 04:50:36;;;;;;;87.27;38.77;;;14.60;99.90;;;;;;4981614;28;20805;-83
2023/10/07 04:52:50;;;;;;;87.00;39.67;;;14.60;99.90;;;;;;4972785;28;20431;-83
2023/10/07 04:55:19;;;;;;;88.80;45.17;;;14.60;99.90;;;;;;4980911;28;20387;-83
2023/10/07 05:03:01;;;;;;;95.47;49.00;;;14.60;99.90;;;;;;4980894;28;21003;-82
2023/10/07 05:05:30;;;;;;;86.03;43.97;;;14.60;99.90;;;;;;4963069;28;20421;-83
2023/10/07 05:08:08;;;;;;;90.80;48.57;;;14.60;99.90;;;;;;4980296;28;20490;-83
2023/10/07 05:10:41;;;;;;;84.43;42.90;;;14.60;99.90;;;;;;4980875;28;20376;-83
2023/10/07 05:13:07;;;;;;;92.63;47.10;;;14.60;99.90;;;;;;4980768;28;20424;-83
2023/10/07 05:15:41;;;;;;;89.23;51.50;;;14.60;99.90;;;;;;4980253;28;20425;-83
2023/10/07 05:18:23;;;;;;;98.10;51.60;;;14.60;99.90;;;;;;4978652;28;20408;-82
2023/10/07 05:20:48;;;;;;;90.30;44.30;;;14.60;99.90;;;;;;4980051;28;20582;-83
2023/10/07 05:23:14;;;;;;;96.20;53.73;;;14.60;99.90;;;;;;4962626;28;20206;-82
2023/10/07 05:25:48;;;;;;;88.67;47.67;;;14.60;99.90;;;;;;4980425;28;20173;-82
2023/10/07 05:28:17;;;;;;;95.00;53.90;;;14.60;99.90;;;;;;4963252;28;20496;-83
2023/10/07 05:30:54;;;;;;;92.27;57.13;;;14.60;99.90;;;;;;4981316;28;20413;-83
2023/10/07 05:33:27;;;;;;;87.50;47.20;;;14.70;99.90;;;;;;4964133;28;20442;-83
2023/10/07 05:36:08;;;;;;;88.80;47.53;;;14.70;99.90;;;;;;4963582;28;20412;-83
2023/10/07 05:38:35;;;;;;;85.73;41.43;;;14.70;99.90;;;;;;4979879;28;20388;-82
2023/10/07 05:41:01;;;;;;;89.73;47.20;;;14.70;99.90;;;;;;4962362;28;20447;-83
2023/10/07 05:43:28;;;;;;;91.37;48.60;;;14.70;99.90;;;;;;4979506;28;20434;-82
2023/10/07 05:45:54;;;;;;;90.60;52.33;;;14.60;99.90;;;;;;4978813;28;20247;-82
2023/10/07 05:48:21;;;;;;;92.37;44.63;;;14.60;99.90;;;;;;4978807;28;20840;-83
2023/10/07 05:50:47;;;;;;;87.03;45.63;;;14.50;99.90;;;;;;4979278;28;20822;-83
2023/10/07 05:53:15;;;;;;;87.57;44.30;;;14.40;99.90;;;;;;4979760;28;20440;-82
2023/10/07 05:55:41;;;;;;;89.50;53.43;;;14.30;99.90;;;;;;4961906;28;20411;-82
2023/10/07 05:58:07;;;;;;;87.87;46.07;;;14.20;99.90;;;;;;4979122;28;20473;-83
2023/10/07 06:00:36;;;;;;;89.07;49.93;;;14.10;99.90;;;;;;4978916;28;20407;-82
2023/10/07 06:03:06;;;;;;;88.97;44.70;;;14.20;99.90;;;;;;4977706;28;20510;-82
2023/10/07 06:05:37;;;;;;;86.90;44.13;;;14.20;99.90;;;;;;4960616;28;20472;-82
2023/10/07 06:08:10;;;;;;;87.43;44.93;;;14.20;99.90;;;;;;4978249;28;20438;-82
2023/10/07 06:10:38;;;;;;;85.17;44.83;;;14.30;99.90;;;;;;4978122;28;20470;-81
2023/10/07 06:13:10;;;;;;;88.27;41.73;;;14.40;99.90;;;;;;4978750;28;20921;-82
2023/10/07 06:15:39;;;;;;;86.17;37.83;;;14.40;99.90;;;;;;4978210;28;20388;-81
2023/10/07 06:18:05;;;;;;;85.80;37.37;;;14.40;99.90;;;;;;4960514;28;20814;-82
2023/10/07 06:20:46;;;;;;;81.40;34.33;;;14.50;99.90;;;;;;4977719;28;20466;-81
2023/10/07 06:23:16;;;;;;;86.60;32.53;;;14.50;99.90;;;;;;4977384;28;20451;-82
2023/10/07 06:25:48;;;;;;;84.77;37.30;;;14.50;99.90;;;;;;4977110;28;20411;-81
2023/10/07 06:28:35;;;;;;;83.47;31.80;;;14.60;99.90;;;;;;4960330;28;20395;-81
2023/10/07 06:31:13;;;;;;;85.33;40.33;;;14.60;99.90;;;;;;4977782;28;20394;-81
2023/10/07 06:33:43;;;;;;;84.67;36.93;;;14.60;99.90;;;;;;4976571;28;20423;-81
2023/10/07 06:36:12;;;;;;;83.50;32.43;;;14.60;99.90;;;;;;4976913;28;20407;-81
2023/10/07 06:38:45;;;;;;;85.73;38.30;;;14.60;99.90;;;;;;4959847;28;20470;-81
2023/10/07 06:41:12;;;;;;;92.00;33.93;;;14.70;99.90;;;;;;4976604;28;20504;-81
2023/10/07 06:43:49;;;;;;;85.00;35.10;;;14.80;99.90;;;;;;4976713;28;20427;-81
2023/10/07 06:46:20;;;;;;;83.00;36.60;;;14.80;99.90;;;;;;4976246;28;20387;-80
2023/10/07 06:48:49;;;;;;;90.17;32.33;;;14.80;99.90;;;;;;4976525;28;20435;-81
2023/10/07 06:51:16;;;;;;;83.20;33.47;;;14.80;99.90;;;;;;4976727;28;20423;-81
2023/10/07 06:53:45;;;;;;;83.43;28.13;;;14.80;99.90;;;;;;4976780;28;20431;-81
2023/10/07 06:56:20;;;;;;;82.10;30.03;;;14.90;99.90;;;;;;4959880;28;20493;-81
2023/10/07 06:58:53;;;;;;;82.77;35.07;;;14.90;99.90;;;;;;4959965;28;20754;-82
2023/10/07 07:01:35;;;;;;;88.87;39.40;;;14.90;99.90;;;;;;4960872;28;21024;-82
2023/10/07 07:04:09;;;;;;;81.33;35.40;;;14.90;99.90;;;;;;4977923;28;20398;-82
2023/10/07 07:06:42;;;;;;;85.17;34.87;;;15.00;99.90;;;;;;4977405;28;20437;-83
2023/10/07 07:12:03;;;;;;;86.07;44.90;;;15.10;99.90;;;;;;4977912;28;20431;-82
2023/10/07 07:14:30;;;;;;;85.70;38.70;;;15.10;99.90;;;;;;4977194;28;20415;-81
2023/10/07 07:17:29;;;;;;;84.47;41.77;;;15.20;99.90;;;;;;4959374;28;20419;-81
2023/10/07 07:22:36;;;;;;;85.73;43.80;;;15.30;99.90;;;;;;4977305;28;20589;-81
2023/10/07 07:25:05;;;;;;;89.93;42.70;;;15.40;99.90;;;;;;4977463;28;20444;-82
2023/10/07 07:27:34;;;;;;;86.03;43.93;;;15.50;99.90;;;;;;4977691;28;20801;-81
2023/10/07 07:30:07;;;;;;;87.07;48.50;;;15.60;99.90;;;;;;4977339;28;20407;-81
2023/10/07 07:32:35;;;;;;;89.43;54.53;;;15.70;99.90;;;;;;4976884;28;20431;-81
2023/10/07 07:35:04;;;;;;;88.30;54.40;;;15.80;99.90;;;;;;4959795;28;20421;-81
2023/10/07 07:37:34;;;;;;;86.87;49.83;;;16.00;99.90;;;;;;4976555;28;20438;-81
2023/10/07 07:40:09;;;;;;;84.60;41.40;;;16.10;99.90;;;;;;4976905;28;20466;-81
2023/10/07 07:42:35;;;;;;;89.03;38.63;;;16.20;99.90;;;;;;4959255;28;20904;-81
2023/10/07 07:45:14;;;;;;;78.90;27.43;;;16.30;99.90;;;;;;4976445;28;20439;-81
2023/10/07 07:47:41;;;;;;;81.53;28.73;;;16.40;99.90;;;;;;4976410;28;20387;-80
2023/10/07 07:50:08;;;;;;;79.20;23.97;;;16.40;99.90;;;;;;4976582;28;20905;-81
2023/10/07 07:52:34;;;;;;;78.47;23.00;;;16.50;99.90;;;;;;4959344;28;20435;-81
2023/10/07 07:55:00;;;;;;;78.07;20.80;;;16.60;99.90;;;;;;4959187;28;20932;-81
2023/10/07 07:57:27;;;;;;;74.73;19.67;;;16.60;99.90;;;;;;4976031;28;20175;-81
2023/10/07 07:59:53;;;;;;;77.60;18.40;;;16.70;99.90;;;;;;4976099;28;20168;-81
2023/10/07 08:02:24;;;;;;;78.80;21.43;;;16.70;99.90;;;;;;4976071;28;20466;-81
2023/10/07 08:04:50;;;;;;;74.90;15.80;;;16.70;99.90;;;;;;4958020;28;20542;-81
2023/10/07 08:09:51;;;;;;;77.93;20.20;;;16.90;99.90;;;;;;4976055;28;20391;-81
2023/10/07 08:12:33;;;;;;;77.80;19.83;;;17.00;99.90;;;;;;4976314;28;20482;-81
2023/10/07 08:15:23;;;;;;;77.77;22.33;;;17.00;99.90;;;;;;4976499;28;20402;-81
2023/10/07 08:17:56;;;;;;;79.63;19.33;;;17.00;99.90;;;;;;4976159;28;20494;-81
2023/10/07 08:21:10;;;;;;;77.37;21.87;;;17.00;99.90;;;;;;4978936;28;20762;-81
2023/10/07 08:23:28;;;;;;;79.70;21.70;;;17.00;99.90;;;;;;4971805;28;20527;-81
2023/10/07 08:26:10;;;;;;;82.00;25.87;;;17.10;99.90;;;;;;5079876;23;20959;-81
2023/10/07 08:31:19;;;;;;;77.30;24.00;;;17.20;99.90;;;;;;4998830;28;20403;-81
2023/10/07 08:34:09;;;;;;;81.37;27.07;;;17.20;99.90;;;;;;4979684;28;20512;-81
2023/10/07 08:36:43;;;;;;;82.77;25.93;;;17.20;99.90;;;;;;4948827;28;20762;-81
2023/10/07 08:39:09;;;;;;;78.03;23.23;;;17.20;99.90;;;;;;4961398;28;20415;-81
2023/10/07 08:41:40;;;;;;;79.80;22.13;;;17.20;99.90;;;;;;4978800;28;20813;-81
2023/10/07 08:44:13;;;;;;;78.23;21.73;;;17.20;99.90;;;;;;4961231;28;20426;-81
2023/10/07 08:49:44;;;;;;;75.53;21.20;;;17.20;99.90;;;;;;4978644;28;20430;-81
2023/10/07 08:52:09;;;;;;;78.13;23.10;;;17.10;99.90;;;;;;4978122;28;20430;-81
2023/10/07 08:54:37;;;;;;;81.07;25.70;;;17.20;99.90;;;;;;4978572;28;20164;-81
2023/10/07 08:57:19;;;;;;;83.30;29.90;;;17.30;99.90;;;;;;4978249;28;20258;-81
2023/10/07 08:59:59;;;;;;;78.13;27.37;;;17.40;99.90;;;;;;4960330;28;20411;-81
2023/10/07 09:02:28;;;;;;;79.50;26.20;;;17.40;99.90;;;;;;4977670;28;20486;-81
2023/10/07 09:05:09;;;;;;;79.30;28.27;;;17.60;99.90;;;;;;4960110;28;20449;-81
2023/10/07 09:07:36;;;;;;;77.80;25.40;;;17.70;99.90;;;;;;4960284;28;20454;-81
2023/10/07 09:10:13;;;;;;;78.23;25.63;;;17.80;99.90;;;;;;4977574;28;20525;-81
2023/10/07 09:12:46;;;;;;;78.70;22.47;;;17.90;99.90;;;;;;4978034;28;20840;-81
2023/10/07 09:15:20;;;;;;;77.73;25.30;;;18.00;99.90;;;;;;4946595;28;20410;-81
2023/10/07 09:17:46;;;;;;;83.40;23.80;;;18.00;99.90;;;;;;4978929;28;20437;-81
2023/10/07 09:20:29;;;;;;;75.93;17.13;;;18.00;99.90;;;;;;4979201;28;20403;-81
2023/10/07 09:23:19;;;;;;;72.67;14.97;;;18.00;99.90;;;;;;4979216;28;20188;-81
2023/10/07 09:25:52;;;;;;;75.07;15.40;;;17.90;99.90;;;;;;4977862;28;20427;-81
2023/10/07 09:28:29;;;;;;;75.43;16.17;;;17.80;99.90;;;;;;4977646;28;20380;-81
2023/10/07 09:30:58;;;;;;;79.10;15.93;;;17.90;99.90;;;;;;4959311;28;20407;-81
2023/10/07 09:33:35;;;;;;;75.57;15.87;;;18.00;99.90;;;;;;4976946;28;20853;-80
2023/10/07 09:39:04;;;;;;;74.73;12.93;;;18.20;99.90;;;;;;4977333;28;20434;-80
2023/10/07 09:41:32;;;;;;;71.10;7.60;;;18.30;99.90;;;;;;4976678;28;20447;-81
2023/10/07 09:44:00;;;;;;;71.97;7.77;;;18.40;99.90;;;;;;4977117;28;20408;-80
2023/10/07 09:46:27;;;;;;;70.77;8.47;;;18.40;99.90;;;;;;4976840;28;20426;-81
2023/10/07 09:48:56;;;;;;;75.77;9.40;;;18.50;99.90;;;;;;4977633;28;20431;-81
2023/10/07 09:51:24;;;;;;;73.50;9.03;;;18.60;99.90;;;;;;4977408;28;20415;-80
2023/10/07 09:54:27;;;;;;;69.90;6.80;;;18.70;99.90;;;;;;4976418;28;20415;-81
2023/10/07 09:57:24;;;;;;;70.40;5.17;;;18.90;99.10;;;;;;4961056;28;20415;-80
2023/10/07 10:03:20;;;;;;;71.90;6.43;;;19.00;95.70;;;;;;4976599;28;20431;-81
2023/10/07 10:05:50;;;;;;;71.53;9.10;;;19.20;90.30;;;;;;4976469;28;20474;-81
2023/10/07 10:08:27;;;;;;;73.27;11.87;;;19.30;86.50;;;;;;4958937;28;20419;-81
2023/10/07 10:10:57;;;;;;;73.00;13.63;;;19.40;87.20;;;;;;4977008;28;20466;-80
2023/10/07 10:16:28;;;;;;;75.60;8.43;;;19.80;79.80;;;;;;4954442;28;20486;-80
2023/10/07 10:19:11;;;;;;;69.80;6.37;;;20.00;60.70;;;;;;4960920;28;20440;-81
2023/10/07 10:21:37;;;;;;;70.87;6.30;;;20.10;56.90;;;;;;4976978;28;20443;-80
2023/10/07 10:24:03;;;;;;;70.37;6.10;;;20.10;42.40;;;;;;4976902;28;20434;-81
2023/10/07 10:26:33;;;;;;;73.10;7.90;;;20.10;35.40;;;;;;4976707;28;20211;-80
2023/10/07 10:29:03;;;;;;;72.10;8.10;;;20.10;27.50;;;;;;4959266;28;20419;-80
2023/10/07 10:31:34;;;;;;;72.43;9.20;;;20.10;21.80;;;;;;4958711;28;20937;-81
2023/10/07 10:34:08;;;;;;;72.40;9.30;;;20.00;23.10;;;;;;4976589;28;20735;-80
2023/10/07 10:36:43;;;;;;;71.57;7.17;;;20.00;30.00;;;;;;4958802;28;20415;-81
2023/10/07 10:39:25;;;;;;;75.50;8.70;;;20.10;37.30;;;;;;4958830;28;20414;-80
2023/10/07 10:41:54;;;;;;;70.97;9.70;;;20.20;31.20;;;;;;4974943;28;20467;-80
2023/10/07 10:44:21;;;;;;;73.23;11.70;;;20.40;18.90;;;;;;4975739;28;20403;-80
2023/10/07 10:46:51;;;;;;;74.43;10.03;;;20.60;4.70;;;;;;4958643;28;20770;-80
2023/10/07 10:49:21;;;;;;;76.60;11.23;;;20.60;18.70;;;;;;4976277;28;20823;-80
2023/10/07 10:51:54;;;;;;;71.90;10.40;;;20.70;8.00;;;;;;4958595;28;20463;-80
2023/10/07 10:54:23;;;;;;;88.03;12.03;;;20.80;4.80;;;;;;4976310;28;20396;-80
2023/10/07 10:56:50;;;;;;;75.60;10.40;;;21.00;1.00;;;;;;4976357;28;20411;-81
2023/10/07 10:59:22;;;;;;;72.53;8.80;;;21.10;1.00;;;;;;4958441;28;20426;-80
2023/10/07 11:01:50;;;;;;;70.70;7.70;;;21.10;1.00;;;;;;4975105;28;20518;-81
2023/10/07 11:04:21;;;;;;;73.33;11.10;;;21.30;1.00;;;;;;4975814;28;20812;-80
2023/10/07 11:06:51;;;;;;;69.63;5.57;;;21.40;1.00;;;;;;4975609;28;20387;-81
2023/10/07 11:09:26;;;;;;;73.47;5.70;;;21.50;1.00;;;;;;4975201;28;20494;-80
2023/10/07 11:11:56;;;;;;;73.20;4.43;;;21.60;1.00;;;;;;4974959;28;20513;-81
2023/10/07 11:14:23;;;;;;;71.57;6.60;;;21.70;1.00;;;;;;4957773;28;20766;-81
2023/10/07 11:16:50;;;;;;;73.97;4.80;;;21.90;1.00;;;;;;4975027;28;20823;-80
2023/10/07 11:19:18;;;;;;;69.13;4.70;;;22.10;1.00;;;;;;4975028;28;20417;-80
2023/10/07 11:21:48;;;;;;;70.40;6.87;;;22.00;1.00;;;;;;4975411;28;20450;-80
2023/10/07 11:24:30;;;;;;;72.67;6.90;;;22.10;1.00;;;;;;4975640;28;20960;-81
2023/10/07 11:26:59;;;;;;;70.87;7.90;;;22.10;1.00;;;;;;4975428;28;20445;-79
2023/10/07 11:29:29;;;;;;;71.23;7.30;;;22.10;1.00;;;;;;4974865;28;20414;-80
2023/10/07 11:32:00;;;;;;;70.60;5.67;;;22.10;1.00;;;;;;4957705;28;20443;-80
2023/10/07 11:34:36;;;;;;;69.80;4.10;;;22.20;1.00;;;;;;4974900;28;20407;-81
2023/10/07 11:37:21;;;;;;;68.87;4.13;;;22.20;1.00;;;;;;4957659;28;20417;-81
2023/10/07 11:39:48;;;;;;;73.53;4.40;;;22.20;1.00;;;;;;4975082;28;20851;-81
2023/10/07 11:42:21;;;;;;;77.43;3.97;;;22.30;1.00;;;;;;4974768;28;20463;-80
2023/10/07 11:44:53;;;;;;;68.97;4.03;;;22.40;1.00;;;;;;4975028;28;20813;-80
2023/10/07 11:47:19;;;;;;;74.03;3.67;;;22.40;1.00;;;;;;4975069;28;20419;-80
2023/10/07 11:49:46;;;;;;;70.30;4.47;;;22.50;1.00;;;;;;4974652;28;20966;-80
2023/10/07 11:52:12;;;;;;;69.00;4.10;;;22.50;1.00;;;;;;4957247;28;20525;-80
2023/10/07 11:54:39;;;;;;;69.23;4.13;;;22.50;1.00;;;;;;4957070;28;20418;-80
2023/10/07 11:57:05;;;;;;;71.50;4.13;;;22.60;1.00;;;;;;4974942;28;20407;-80
2023/10/07 11:59:34;;;;;;;70.53;3.53;;;22.60;1.00;;;;;;4957177;28;20418;-80
2023/10/07 12:02:01;;;;;;;69.37;3.97;;;22.40;1.00;;;;;;4974783;28;20462;-81
2023/10/07 12:04:29;;;;;;;70.27;4.13;;;22.60;1.00;;;;;;4975128;28;20474;-81
2023/10/07 12:06:56;;;;;;;68.83;4.40;;;22.70;1.00;;;;;;4974646;28;20404;-80
2023/10/07 12:09:22;;;;;;;68.70;4.53;;;22.60;1.00;;;;;;4974448;28;20908;-80
2023/10/07 12:11:49;;;;;;;69.27;4.80;;;22.60;1.00;;;;;;4974535;28;20434;-80
2023/10/07 12:14:18;;;;;;;70.20;5.07;;;22.70;1.00;;;;;;4957253;28;20478;-80
2023/10/07 12:16:44;;;;;;;69.90;5.00;;;22.80;1.00;;;;;;4957082;28;20498;-80
2023/10/07 12:19:17;;;;;;;69.60;4.60;;;22.70;1.00;;;;;;4975068;28;20448;-80
2023/10/07 12:21:50;;;;;;;68.60;4.10;;;22.80;1.00;;;;;;4974870;28;20451;-80
2023/10/07 12:24:16;;;;;;;71.17;5.10;;;22.80;1.00;;;;;;4974771;28;20388;-80
2023/10/07 12:26:46;;;;;;;74.57;5.37;;;22.90;1.00;;;;;;4974249;28;20419;-80
2023/10/07 12:29:13;;;;;;;74.07;5.40;;;23.00;1.00;;;;;;4957059;28;20406;-80
2023/10/07 12:31:39;;;;;;;69.30;4.87;;;23.00;1.00;;;;;;4974200;28;20781;-80
2023/10/07 12:34:09;;;;;;;69.57;5.27;;;23.00;1.00;;;;;;4974784;28;20417;-80
2023/10/07 12:36:35;;;;;;;68.17;5.57;;;23.10;1.00;;;;;;4974388;28;20829;-80
2023/10/07 12:39:09;;;;;;;68.67;5.00;;;23.00;1.00;;;;;;4974578;28;20410;-80
2023/10/07 12:41:36;;;;;;;71.30;5.80;;;23.00;1.00;;;;;;4956672;28;20274;-80
2023/10/07 12:44:03;;;;;;;69.07;5.10;;;23.10;1.00;;;;;;4974689;28;20403;-80
2023/10/07 12:46:28;;;;;;;68.87;4.80;;;22.90;1.00;;;;;;4974345;28;20454;-80
2023/10/07 12:48:55;;;;;;;73.00;6.50;;;22.90;1.00;;;;;;4974070;28;20410;-80
2023/10/07 12:51:20;;;;;;;69.37;5.50;;;23.00;1.00;;;;;;4974223;28;20584;-81
2023/10/07 12:53:46;;;;;;;71.40;6.13;;;22.90;1.00;;;;;;4974541;28;20514;-80
2023/10/07 12:56:19;;;;;;;70.80;5.03;;;22.80;1.00;;;;;;4974679;28;20175;-80
2023/10/07 12:58:48;;;;;;;77.23;5.73;;;22.60;1.00;;;;;;4974470;28;20184;-80
2023/10/07 13:01:14;;;;;;;71.40;5.70;;;22.60;1.00;;;;;;4973955;28;20486;-81
2023/10/07 13:03:43;;;;;;;71.10;5.33;;;22.50;1.00;;;;;;4973975;28;20427;-81
2023/10/07 13:06:14;;;;;;;71.10;4.83;;;22.50;1.00;;;;;;4977187;28;20426;-81
2023/10/07 13:08:40;;;;;;;70.67;4.87;;;22.50;1.00;;;;;;4979064;28;20395;-81
2023/10/07 13:11:13;;;;;;;70.37;4.90;;;22.70;1.00;;;;;;4978421;28;20458;-81
2023/10/07 13:13:46;;;;;;;68.70;5.67;;;22.70;1.00;;;;;;4978518;28;20542;-81
2023/10/07 13:16:13;;;;;;;70.10;5.17;;;22.80;1.00;;;;;;4971397;28;20474;-82
2023/10/07 13:18:44;;;;;;;69.17;4.80;;;22.90;1.00;;;;;;4968791;28;20506;-81
2023/10/07 13:21:25;;;;;;;69.20;5.37;;;22.90;1.00;;;;;;4986075;28;20451;-82
2023/10/07 13:23:51;;;;;;;72.30;5.40;;;23.00;1.00;;;;;;4967696;28;20411;-82
2023/10/07 13:26:17;;;;;;;69.80;5.80;;;23.00;1.00;;;;;;4968298;28;20428;-82
2023/10/07 13:28:48;;;;;;;73.80;6.53;;;23.10;1.00;;;;;;4987009;28;20430;-81
2023/10/07 13:31:14;;;;;;;69.60;5.77;;;23.10;1.00;;;;;;4986767;28;20395;-82
2023/10/07 13:33:40;;;;;;;69.00;6.00;;;23.10;1.00;;;;;;4985962;28;20808;-81
2023/10/07 13:36:07;;;;;;;69.83;6.10;;;23.10;1.00;;;;;;4984951;28;20753;-82
2023/10/07 13:38:33;;;;;;;72.17;6.90;;;23.00;1.00;;;;;;4985639;28;20446;-82
2023/10/07 13:41:05;;;;;;;70.20;5.70;;;23.00;1.00;;;;;;4986320;28;20820;-82
2023/10/07 13:43:34;;;;;;;78.30;6.30;;;23.00;1.00;;;;;;4986367;28;20782;-82
2023/10/07 13:46:09;;;;;;;70.70;5.60;;;23.00;1.00;;;;;;4985920;28;20754;-81
2023/10/07 13:48:35;;;;;;;69.80;6.10;;;23.00;1.00;;;;;;4987205;28;20395;-82
2023/10/07 13:51:00;;;;;;;71.77;8.07;;;23.00;1.00;;;;;;4986535;28;20411;-81
2023/10/07 13:53:51;;;;;;;72.43;7.77;;;23.00;1.00;;;;;;4986394;28;20202;-84
2023/10/07 13:56:23;;;;;;;72.50;8.73;;;23.00;1.00;;;;;;4985912;28;20175;-81
2023/10/07 13:58:49;;;;;;;72.47;8.97;;;23.00;1.00;;;;;;4969270;28;20411;-82
2023/10/07 14:01:17;;;;;;;75.30;6.57;;;22.90;1.00;;;;;;4966107;28;21035;-81
2023/10/07 14:03:44;;;;;;;71.37;6.13;;;22.90;1.00;;;;;;4980968;28;20420;-80